Time;durP1;ratioP1;P1;durP2;ratioP2;P2;SDS_P1;SDS_P2;PMS_P1;PMS_P2;Temp;Humidity;BMP_temperature;BMP_pressure;BME280_temperature;BME280_humidity;BME280_pressure;Samples;Min_cycle;Max_cycle;Signal;HPM_P1;HPM_P2
2022/01/27 00:05:26;;;;;;;52.60;27.53;;;1.20;95.90;;;;;;5047907;28;20562;-80
2022/01/27 00:08:08;;;;;;;52.40;26.63;;;1.10;96.00;;;;;;5049718;28;20584;-81
2022/01/27 00:10:49;;;;;;;50.73;26.30;;;1.10;96.30;;;;;;5048899;28;20720;-81
2022/01/27 00:13:18;;;;;;;49.60;25.73;;;1.20;96.30;;;;;;5050353;28;20237;-80
2022/01/27 00:15:49;;;;;;;47.73;25.53;;;1.40;96.00;;;;;;5050730;28;20210;-81
2022/01/27 00:18:18;;;;;;;52.20;26.23;;;1.40;95.30;;;;;;5050328;28;20225;-80
2022/01/27 00:20:47;;;;;;;47.47;27.03;;;1.50;95.10;;;;;;5050731;28;20198;-80
2022/01/27 00:23:15;;;;;;;48.13;26.93;;;1.40;95.10;;;;;;5046527;28;20230;-80
2022/01/27 00:25:42;;;;;;;49.20;26.43;;;1.30;94.90;;;;;;5052065;28;20198;-81
2022/01/27 00:28:10;;;;;;;46.40;25.93;;;1.30;95.30;;;;;;5051542;28;20259;-81
2022/01/27 00:30:38;;;;;;;49.60;26.07;;;1.30;95.40;;;;;;5048185;28;20266;-81
2022/01/27 00:33:06;;;;;;;47.37;26.47;;;1.30;95.40;;;;;;5053821;28;20229;-80
2022/01/27 00:35:33;;;;;;;50.77;27.87;;;1.30;95.60;;;;;;5056242;28;20289;-80
2022/01/27 00:38:02;;;;;;;47.77;25.30;;;1.40;95.00;;;;;;5053028;28;20222;-81
2022/01/27 00:40:30;;;;;;;47.33;26.13;;;1.40;95.00;;;;;;5053288;28;20204;-80
2022/01/27 00:42:57;;;;;;;49.40;26.77;;;1.30;94.60;;;;;;5050373;28;20240;-80
2022/01/27 00:45:25;;;;;;;46.73;25.63;;;1.20;95.20;;;;;;5044641;28;20282;-80
2022/01/27 00:47:52;;;;;;;50.00;26.30;;;1.20;95.20;;;;;;5045943;28;20253;-80
2022/01/27 00:50:19;;;;;;;47.33;26.07;;;1.20;95.00;;;;;;5049922;28;20209;-80
2022/01/27 00:52:50;;;;;;;49.33;27.00;;;1.10;95.60;;;;;;5053642;28;20225;-84
2022/01/27 00:55:21;;;;;;;48.43;26.20;;;1.10;95.60;;;;;;5054592;28;20690;-81
2022/01/27 00:58:02;;;;;;;48.93;27.00;;;1.00;95.70;;;;;;5051866;28;20226;-81
2022/01/27 01:00:34;;;;;;;52.43;26.47;;;1.00;95.80;;;;;;5054805;28;20209;-81
2022/01/27 01:03:05;;;;;;;50.13;27.53;;;1.00;95.80;;;;;;5050271;28;20226;-83
2022/01/27 01:05:50;;;;;;;47.90;26.53;;;1.00;95.70;;;;;;5055292;28;20280;-81
2022/01/27 01:09:06;;;;;;;44.73;25.87;;;1.00;95.80;;;;;;5051663;28;20228;-82
2022/01/27 01:11:42;;;;;;;45.77;26.10;;;0.90;96.00;;;;;;5052627;28;20198;-81
2022/01/27 01:16:58;;;;;;;48.20;25.57;;;0.80;95.80;;;;;;5053856;28;20283;-81
2022/01/27 01:19:39;;;;;;;45.13;25.43;;;0.70;95.90;;;;;;5054106;28;20213;-83
2022/01/27 01:29:24;;;;;;;47.33;25.07;;;0.60;96.20;;;;;;5051398;28;20632;-81
2022/01/27 01:30:48;;;;;;;45.47;25.07;;;0.60;95.90;;;;;;5052067;28;20678;-79
2022/01/27 01:33:21;;;;;;;46.67;25.30;;;0.60;96.00;;;;;;5052700;28;20221;-79
2022/01/27 01:35:49;;;;;;;46.70;26.30;;;0.50;96.30;;;;;;5049550;28;20289;-79
2022/01/27 01:38:19;;;;;;;44.13;24.53;;;0.50;96.30;;;;;;5049909;28;20245;-79
2022/01/27 01:40:47;;;;;;;43.53;24.00;;;0.60;96.70;;;;;;5050426;28;20212;-81
2022/01/27 01:43:16;;;;;;;45.47;25.57;;;0.60;96.50;;;;;;5049519;28;20241;-80
2022/01/27 01:45:44;;;;;;;49.27;25.77;;;0.70;96.30;;;;;;5050490;28;20209;-79
2022/01/27 01:48:10;;;;;;;47.07;25.90;;;0.60;95.90;;;;;;5051497;28;20672;-83
2022/01/27 01:50:38;;;;;;;46.03;25.77;;;0.60;96.10;;;;;;5053334;28;20198;-79
2022/01/27 01:53:05;;;;;;;47.23;26.60;;;0.50;96.50;;;;;;5047838;28;20233;-80
2022/01/27 01:55:33;;;;;;;46.27;25.13;;;0.50;96.50;;;;;;5044125;28;20222;-79
2022/01/27 01:58:00;;;;;;;46.73;26.33;;;0.50;96.50;;;;;;5046635;28;20660;-79
2022/01/27 02:00:30;;;;;;;46.37;25.60;;;0.60;96.60;;;;;;5044070;28;20301;-83
2022/01/27 02:02:57;;;;;;;44.53;25.53;;;0.60;96.30;;;;;;5050516;28;20221;-79
2022/01/27 02:05:29;;;;;;;49.07;25.57;;;0.70;96.10;;;;;;5053251;28;20227;-80
2022/01/27 02:08:15;;;;;;;46.47;25.73;;;0.50;96.00;;;;;;5048568;28;20240;-79
2022/01/27 02:19:10;;;;;;;46.87;24.83;;;0.30;96.70;;;;;;5049589;28;20569;-80
2022/01/27 02:21:45;;;;;;;48.47;26.13;;;0.20;96.70;;;;;;5051862;28;20225;-80
2022/01/27 02:24:13;;;;;;;48.07;27.23;;;0.30;96.80;;;;;;5052109;28;20939;-80
2022/01/27 02:26:41;;;;;;;46.47;26.20;;;0.20;96.70;;;;;;5051753;28;20217;-79
2022/01/27 02:29:08;;;;;;;48.43;26.23;;;0.10;96.90;;;;;;5052697;28;20209;-80
2022/01/27 02:31:35;;;;;;;49.17;26.27;;;0.10;96.70;;;;;;5048776;28;20701;-80
2022/01/27 02:34:04;;;;;;;45.50;25.57;;;0.10;96.80;;;;;;5050663;28;20649;-81
2022/01/27 02:36:31;;;;;;;46.87;26.00;;;0.10;97.00;;;;;;5052006;28;20247;-79
2022/01/27 02:39:00;;;;;;;47.23;26.37;;;0.00;96.60;;;;;;5052062;28;20246;-81
2022/01/27 02:41:31;;;;;;;45.80;26.13;;;0.00;97.10;;;;;;5051751;28;20212;-81
2022/01/27 02:43:58;;;;;;;50.63;27.70;;;0.10;97.20;;;;;;5052155;28;20223;-80
2022/01/27 02:46:31;;;;;;;47.33;26.30;;;0.20;96.90;;;;;;5044819;28;20203;-79
2022/01/27 02:48:58;;;;;;;46.47;26.43;;;0.10;96.80;;;;;;5051695;28;20291;-79
2022/01/27 02:51:25;;;;;;;48.47;27.37;;;0.10;97.00;;;;;;5048931;28;20210;-80
2022/01/27 02:53:52;;;;;;;49.63;27.27;;;0.00;96.90;;;;;;5048619;28;20205;-80
2022/01/27 02:56:21;;;;;;;54.33;29.53;;;-0.10;97.00;;;;;;5051366;28;20201;-80
2022/01/27 02:58:48;;;;;;;47.90;26.77;;;-0.20;97.30;;;;;;5048358;28;20284;-80
2022/01/27 03:01:19;;;;;;;47.70;27.27;;;-0.20;97.70;;;;;;5051683;28;20215;-82
2022/01/27 03:03:46;;;;;;;51.37;26.33;;;0.00;97.60;;;;;;5042487;28;20206;-81
2022/01/27 03:06:13;;;;;;;49.70;26.73;;;0.00;97.50;;;;;;5044241;28;20243;-80
2022/01/27 03:08:41;;;;;;;52.23;27.70;;;0.00;97.30;;;;;;5051750;28;20205;-80
2022/01/27 03:11:13;;;;;;;49.40;26.93;;;-0.10;97.40;;;;;;5051676;28;20210;-82
2022/01/27 03:13:41;;;;;;;54.60;27.97;;;-0.20;97.40;;;;;;5046283;28;20228;-81
2022/01/27 03:16:08;;;;;;;50.17;26.63;;;-0.10;97.60;;;;;;5046258;28;20206;-80
2022/01/27 03:18:35;;;;;;;50.40;26.70;;;-0.10;97.50;;;;;;5050995;28;20686;-80
2022/01/27 03:21:02;;;;;;;48.97;25.53;;;0.00;97.50;;;;;;5049738;28;20289;-79
2022/01/27 03:23:29;;;;;;;48.70;27.30;;;0.00;97.40;;;;;;5045498;28;20224;-79
2022/01/27 03:25:56;;;;;;;47.13;26.03;;;0.10;97.20;;;;;;5051388;28;20700;-83
2022/01/27 03:28:27;;;;;;;51.73;26.90;;;0.20;96.80;;;;;;5050894;28;20644;-81
2022/01/27 03:30:56;;;;;;;47.27;25.23;;;0.30;96.70;;;;;;5049403;28;20201;-81
2022/01/27 03:33:22;;;;;;;49.23;26.47;;;0.30;97.00;;;;;;5050023;28;20221;-82
2022/01/27 03:35:49;;;;;;;50.13;26.07;;;0.30;96.60;;;;;;5054553;28;20209;-81
2022/01/27 03:38:16;;;;;;;48.53;25.47;;;0.30;96.40;;;;;;5050489;28;20246;-81
2022/01/27 03:40:43;;;;;;;50.30;26.53;;;0.20;96.30;;;;;;5052279;28;20199;-81
2022/01/27 03:43:11;;;;;;;47.70;25.10;;;0.20;96.40;;;;;;5049238;28;20229;-81
2022/01/27 03:45:39;;;;;;;48.97;26.37;;;0.10;96.30;;;;;;5052742;28;20583;-81
2022/01/27 03:48:07;;;;;;;48.50;25.43;;;0.10;96.30;;;;;;5052988;28;20280;-81
2022/01/27 03:50:35;;;;;;;48.80;25.37;;;0.10;96.40;;;;;;5053337;28;20276;-81
2022/01/27 03:53:02;;;;;;;52.87;25.37;;;0.20;96.30;;;;;;5053189;28;20232;-81
2022/01/27 03:55:29;;;;;;;46.30;25.20;;;0.10;96.10;;;;;;5053669;28;20206;-81
2022/01/27 03:57:56;;;;;;;45.30;25.10;;;0.10;96.10;;;;;;5047399;28;20237;-82
2022/01/27 04:00:26;;;;;;;49.87;25.27;;;0.10;96.20;;;;;;5052090;28;20200;-81
2022/01/27 04:03:00;;;;;;;45.73;24.40;;;0.00;96.20;;;;;;5052192;28;20232;-82
2022/01/27 04:05:34;;;;;;;49.30;26.63;;;-0.20;96.50;;;;;;5053232;28;20230;-82
2022/01/27 04:08:01;;;;;;;49.17;25.50;;;-0.30;96.80;;;;;;5055131;28;20228;-81
2022/01/27 04:10:28;;;;;;;49.67;26.20;;;-0.40;97.10;;;;;;5052737;28;20703;-82
2022/01/27 04:12:55;;;;;;;43.50;24.00;;;-0.30;97.40;;;;;;5055841;28;20232;-81
2022/01/27 04:15:22;;;;;;;50.57;25.97;;;-0.20;97.30;;;;;;5055823;28;20210;-81
2022/01/27 04:17:49;;;;;;;47.67;25.17;;;-0.10;97.10;;;;;;5055257;28;20240;-82
2022/01/27 04:20:16;;;;;;;47.13;25.37;;;0.00;96.90;;;;;;5051685;28;20211;-81
2022/01/27 04:22:45;;;;;;;46.47;24.47;;;0.10;96.70;;;;;;5056190;28;20225;-82
2022/01/27 04:25:13;;;;;;;47.47;25.27;;;0.10;96.50;;;;;;5051618;28;20235;-81
2022/01/27 04:27:44;;;;;;;47.63;25.17;;;0.20;96.40;;;;;;5055852;28;20233;-81
2022/01/27 04:30:14;;;;;;;50.93;25.47;;;0.10;96.40;;;;;;5055966;28;20201;-81
2022/01/27 04:32:45;;;;;;;48.03;25.20;;;0.20;96.30;;;;;;5053532;28;20281;-82
2022/01/27 04:35:16;;;;;;;46.87;24.73;;;0.10;96.30;;;;;;5053595;28;20211;-81
2022/01/27 04:37:56;;;;;;;48.17;24.87;;;0.10;96.40;;;;;;5050962;28;20268;-81
2022/01/27 04:40:28;;;;;;;46.57;24.50;;;0.10;96.50;;;;;;5055561;28;20204;-82
2022/01/27 04:43:01;;;;;;;49.57;25.97;;;0.10;96.90;;;;;;5051820;28;20268;-82
2022/01/27 04:45:29;;;;;;;46.13;24.53;;;0.20;96.70;;;;;;5053501;28;20230;-82
2022/01/27 04:48:06;;;;;;;46.63;24.63;;;0.20;96.50;;;;;;5052118;28;20239;-82
2022/01/27 04:50:33;;;;;;;47.17;23.93;;;0.20;96.40;;;;;;5053022;28;20250;-79
2022/01/27 04:53:03;;;;;;;49.80;26.70;;;0.30;96.10;;;;;;5050776;28;20314;-83
2022/01/27 04:55:30;;;;;;;47.80;24.60;;;0.20;96.10;;;;;;5054562;28;20210;-82
2022/01/27 04:58:08;;;;;;;46.13;24.50;;;0.20;96.10;;;;;;5053499;28;20584;-81
2022/01/27 05:00:36;;;;;;;44.87;24.50;;;0.10;96.10;;;;;;5053659;28;20557;-83
2022/01/27 05:03:12;;;;;;;46.30;23.93;;;0.20;96.20;;;;;;5051175;28;20233;-81
2022/01/27 05:05:39;;;;;;;44.50;23.93;;;0.20;96.10;;;;;;5051220;28;20208;-82
2022/01/27 05:08:10;;;;;;;43.43;24.07;;;0.20;96.00;;;;;;5053133;28;21018;-82
2022/01/27 05:10:37;;;;;;;45.53;24.23;;;0.20;95.80;;;;;;5046661;28;20200;-81
2022/01/27 05:13:10;;;;;;;43.60;23.47;;;0.10;95.70;;;;;;5047007;28;20316;-81
2022/01/27 05:15:43;;;;;;;44.83;24.77;;;0.00;95.90;;;;;;5052435;28;20720;-81
2022/01/27 05:18:10;;;;;;;44.10;23.67;;;-0.10;96.10;;;;;;5053605;28;20270;-81
2022/01/27 05:20:37;;;;;;;40.87;22.20;;;-0.10;96.10;;;;;;5045993;28;20205;-82
2022/01/27 05:23:04;;;;;;;43.77;23.87;;;-0.10;96.10;;;;;;5049678;28;20232;-81
2022/01/27 05:25:32;;;;;;;44.17;24.10;;;0.00;96.10;;;;;;5048100;28;20243;-82
2022/01/27 05:27:59;;;;;;;43.57;23.93;;;-0.10;96.00;;;;;;5043938;28;20230;-82
2022/01/27 05:30:26;;;;;;;40.87;23.53;;;-0.10;95.90;;;;;;5042405;28;20212;-82
2022/01/27 05:32:53;;;;;;;42.87;23.73;;;-0.10;95.70;;;;;;5049425;28;20225;-82
2022/01/27 05:35:20;;;;;;;43.67;22.83;;;-0.10;95.90;;;;;;5051285;28;20220;-82
2022/01/27 05:37:47;;;;;;;41.73;23.33;;;-0.10;96.10;;;;;;5052751;28;20315;-81
2022/01/27 05:40:14;;;;;;;45.90;23.40;;;-0.10;96.00;;;;;;5050769;28;20194;-82
2022/01/27 05:42:43;;;;;;;42.17;23.47;;;-0.20;96.00;;;;;;5052378;28;20237;-81
2022/01/27 05:45:10;;;;;;;40.57;22.77;;;-0.20;96.00;;;;;;5052685;28;20221;-81
2022/01/27 05:47:37;;;;;;;41.40;22.77;;;-0.20;95.60;;;;;;5046405;28;20712;-81
2022/01/27 05:50:05;;;;;;;40.67;23.20;;;-0.30;95.80;;;;;;5052001;28;20214;-82
2022/01/27 05:52:32;;;;;;;40.70;21.60;;;-0.40;96.20;;;;;;5052494;28;20217;-82
2022/01/27 05:54:59;;;;;;;40.23;21.73;;;-0.40;96.10;;;;;;5051187;28;20215;-82
2022/01/27 05:57:26;;;;;;;40.13;22.13;;;-0.40;96.00;;;;;;5052569;28;20247;-83
2022/01/27 05:59:55;;;;;;;39.80;21.57;;;-0.50;96.10;;;;;;5049113;28;20558;-83
2022/01/27 06:02:22;;;;;;;38.30;21.47;;;-0.40;96.20;;;;;;5052101;28;20216;-82
2022/01/27 06:04:49;;;;;;;36.97;19.90;;;-0.40;96.10;;;;;;5053946;28;20203;-82
2022/01/27 06:07:17;;;;;;;38.50;21.10;;;-0.40;96.10;;;;;;5055239;28;20233;-82
2022/01/27 06:09:44;;;;;;;36.53;20.73;;;-0.40;95.90;;;;;;5054291;28;20197;-80
2022/01/27 06:12:12;;;;;;;36.47;20.80;;;-0.30;95.90;;;;;;5054036;28;20963;-81
2022/01/27 06:14:39;;;;;;;39.13;21.20;;;-0.30;95.80;;;;;;5054274;28;20201;-81
2022/01/27 06:17:07;;;;;;;37.40;20.77;;;-0.30;95.60;;;;;;5053093;28;20225;-82
2022/01/27 06:19:34;;;;;;;39.97;21.60;;;-0.40;95.90;;;;;;5059740;28;20219;-81
2022/01/27 06:22:03;;;;;;;39.20;21.87;;;-0.40;95.90;;;;;;5046811;28;20233;-80
2022/01/27 06:24:30;;;;;;;37.23;21.33;;;-0.30;95.80;;;;;;5059120;28;20552;-80
2022/01/27 06:27:10;;;;;;;37.53;21.40;;;-0.30;95.80;;;;;;5051785;28;20244;-79
2022/01/27 06:29:38;;;;;;;36.33;20.97;;;-0.30;95.60;;;;;;5049276;28;20596;-79
2022/01/27 06:32:07;;;;;;;35.10;21.03;;;-0.40;95.80;;;;;;5052971;28;20239;-80
2022/01/27 06:34:34;;;;;;;39.30;20.93;;;-0.40;95.90;;;;;;5053670;28;20210;-85
2022/01/27 06:37:01;;;;;;;35.10;20.03;;;-0.50;96.10;;;;;;5044541;28;20236;-79
2022/01/27 06:39:27;;;;;;;40.77;21.23;;;-0.50;96.20;;;;;;5053352;28;20966;-79
2022/01/27 06:41:54;;;;;;;36.30;20.50;;;-0.50;96.20;;;;;;5051560;28;20222;-79
2022/01/27 06:44:21;;;;;;;38.03;20.37;;;-0.50;96.10;;;;;;5053186;28;20544;-79
2022/01/27 06:46:48;;;;;;;36.37;21.10;;;-0.50;96.20;;;;;;5054324;28;20229;-79
2022/01/27 06:49:17;;;;;;;35.60;20.63;;;-0.40;96.00;;;;;;5053716;28;20206;-79
2022/01/27 06:51:45;;;;;;;35.53;20.07;;;-0.40;95.90;;;;;;5052184;28;20230;-79
2022/01/27 06:54:12;;;;;;;35.57;20.63;;;-0.50;96.00;;;;;;5051150;28;20611;-80
2022/01/27 06:56:40;;;;;;;33.83;20.20;;;-0.50;96.20;;;;;;5047679;28;20275;-79
2022/01/27 06:59:07;;;;;;;33.50;19.63;;;-0.50;96.10;;;;;;5053036;28;20351;-80
2022/01/27 07:01:33;;;;;;;34.60;19.40;;;-0.50;96.10;;;;;;5052218;28;20210;-80
2022/01/27 07:04:02;;;;;;;38.37;20.70;;;-0.50;96.00;;;;;;5052577;28;20644;-80
2022/01/27 07:06:32;;;;;;;37.90;21.07;;;-0.50;95.90;;;;;;5046616;28;20218;-79
2022/01/27 07:08:58;;;;;;;37.43;21.23;;;-0.50;96.20;;;;;;5033349;28;20298;-79
2022/01/27 07:11:25;;;;;;;34.60;20.07;;;-0.50;96.00;;;;;;5050947;28;20207;-80
2022/01/27 07:13:52;;;;;;;39.90;20.63;;;-0.50;96.00;;;;;;5052440;28;20202;-80
2022/01/27 07:16:19;;;;;;;37.47;20.27;;;-0.60;96.10;;;;;;5053376;28;20251;-82
2022/01/27 07:18:46;;;;;;;32.30;19.80;;;-0.60;96.30;;;;;;5049660;28;20210;-80
2022/01/27 07:21:13;;;;;;;32.10;19.57;;;-0.60;96.50;;;;;;5055499;28;20209;-80
2022/01/27 07:23:42;;;;;;;36.57;19.17;;;-0.40;96.20;;;;;;5056580;28;20265;-81
2022/01/27 07:26:09;;;;;;;32.70;20.13;;;-0.40;96.00;;;;;;5060447;28;20231;-81
2022/01/27 07:28:40;;;;;;;33.77;19.33;;;-0.40;96.00;;;;;;5060041;28;20235;-81
2022/01/27 07:31:07;;;;;;;32.43;18.53;;;-0.40;95.90;;;;;;5059870;28;20255;-81
2022/01/27 07:33:34;;;;;;;36.47;19.70;;;-0.30;95.90;;;;;;5058995;28;20260;-82
2022/01/27 07:36:07;;;;;;;32.53;19.07;;;-0.30;95.90;;;;;;5058556;28;20208;-83
2022/01/27 07:38:34;;;;;;;31.93;19.13;;;-0.10;95.90;;;;;;5053765;28;20326;-81
2022/01/27 07:41:03;;;;;;;28.73;18.57;;;0.00;95.50;;;;;;5060916;28;20208;-81
2022/01/27 07:43:29;;;;;;;29.47;18.17;;;0.10;95.20;;;;;;5052376;28;20770;-81
2022/01/27 07:45:56;;;;;;;32.50;18.20;;;0.10;95.40;;;;;;5054821;28;20225;-80
2022/01/27 07:48:28;;;;;;;27.90;17.53;;;0.20;95.20;;;;;;5053761;28;20233;-80
2022/01/27 07:50:55;;;;;;;26.37;16.70;;;0.30;94.70;;;;;;5054485;28;20277;-83
2022/01/27 07:53:22;;;;;;;25.77;16.57;;;0.40;94.10;;;;;;5046133;28;20239;-82
2022/01/27 07:55:49;;;;;;;28.67;17.37;;;0.60;94.10;;;;;;5048385;28;20228;-80
2022/01/27 07:58:27;;;;;;;27.90;17.47;;;0.70;94.20;;;;;;5047829;28;20234;-82
2022/01/27 08:00:54;;;;;;;26.73;16.30;;;0.80;94.00;;;;;;5053399;28;20194;-81
2022/01/27 08:03:35;;;;;;;30.03;16.17;;;0.90;93.80;;;;;;5053541;28;20224;-80
2022/01/27 08:06:10;;;;;;;28.20;15.47;;;1.20;94.30;;;;;;5051482;28;20233;-83
2022/01/27 08:08:38;;;;;;;25.93;15.27;;;2.20;91.80;;;;;;5054229;28;20319;-81
2022/01/27 08:11:05;;;;;;;21.53;14.63;;;2.80;87.60;;;;;;5053608;28;20292;-81
2022/01/27 08:13:45;;;;;;;23.10;14.73;;;3.00;84.70;;;;;;5053883;28;20692;-81
2022/01/27 08:16:12;;;;;;;24.63;15.03;;;2.90;84.50;;;;;;5053562;28;20194;-82
2022/01/27 08:18:39;;;;;;;20.87;14.03;;;3.00;84.80;;;;;;5055749;28;20760;-85
2022/01/27 08:21:06;;;;;;;26.63;14.97;;;3.10;85.40;;;;;;5049024;28;20294;-82
2022/01/27 08:23:33;;;;;;;24.13;14.50;;;3.20;87.80;;;;;;5055682;28;20269;-82
2022/01/27 08:26:06;;;;;;;21.63;14.20;;;3.20;83.20;;;;;;5052322;28;20248;-82
2022/01/27 08:28:37;;;;;;;23.77;14.57;;;3.20;82.10;;;;;;5052941;28;20253;-82
2022/01/27 08:31:06;;;;;;;21.70;14.30;;;3.30;81.40;;;;;;5051443;28;20297;-83
2022/01/27 08:33:38;;;;;;;19.23;13.50;;;3.40;79.60;;;;;;5053575;28;20222;-82
2022/01/27 08:36:06;;;;;;;19.60;13.43;;;3.60;80.30;;;;;;5055009;28;20217;-85
2022/01/27 08:38:33;;;;;;;24.77;14.60;;;3.90;78.50;;;;;;5051640;28;20213;-82
2022/01/27 08:41:01;;;;;;;18.93;13.10;;;4.10;79.30;;;;;;5055952;28;20212;-81
2022/01/27 08:43:27;;;;;;;20.17;13.13;;;4.30;75.40;;;;;;5050754;28;20235;-88
2022/01/27 08:45:57;;;;;;;21.03;13.53;;;4.40;75.20;;;;;;5056557;28;20743;-83
2022/01/27 08:48:28;;;;;;;19.07;13.47;;;4.70;74.00;;;;;;5050751;28;20225;-84
2022/01/27 08:50:59;;;;;;;20.13;13.87;;;5.00;69.70;;;;;;5052167;28;20198;-86
2022/01/27 08:53:26;;;;;;;19.30;11.73;;;5.50;65.60;;;;;;5057983;28;20249;-85
2022/01/27 08:55:54;;;;;;;15.37;10.53;;;5.70;62.90;;;;;;5056109;28;20285;-85
2022/01/27 08:58:23;;;;;;;14.57;10.37;;;5.90;57.50;;;;;;5058861;28;20233;-85
2022/01/27 09:00:51;;;;;;;15.60;10.20;;;6.10;55.60;;;;;;5060228;28;20364;-85
2022/01/27 09:03:19;;;;;;;14.20;9.07;;;5.90;53.90;;;;;;5060683;28;20308;-85
2022/01/27 09:06:28;;;;;;;14.00;9.27;;;6.30;52.80;;;;;;5061475;28;20281;-85
2022/01/27 09:08:59;;;;;;;14.88;10.15;;;6.60;48.20;;;;;;5094001;28;20243;-84
2022/01/27 09:11:28;;;;;;;11.18;8.88;;;6.80;44.00;;;;;;5104316;28;20185;-85
2022/01/27 09:20:50;;;;;;;10.75;8.40;;;10.00;30.80;;;;;;5103176;28;20199;-85
2022/01/27 09:23:18;;;;;;;11.05;8.80;;;11.00;24.60;;;;;;5085989;28;20726;-85
2022/01/27 09:25:48;;;;;;;10.60;8.25;;;11.30;25.80;;;;;;5098841;28;20649;-85
2022/01/27 09:28:16;;;;;;;9.43;7.63;;;11.80;25.20;;;;;;5100166;28;20232;-85
2022/01/27 09:30:44;;;;;;;9.43;6.80;;;11.30;24.70;;;;;;5090668;28;20204;-85
2022/01/27 09:33:13;;;;;;;12.18;8.32;;;11.30;24.70;;;;;;5101366;28;20209;-84
2022/01/27 09:35:40;;;;;;;7.80;5.80;;;12.30;21.30;;;;;;5101428;28;20203;-84
2022/01/27 09:38:07;;;;;;;9.15;5.38;;;12.80;19.90;;;;;;5102260;28;20232;-84
2022/01/27 09:40:34;;;;;;;8.35;5.00;;;12.70;20.10;;;;;;5101009;28;20714;-84
2022/01/27 09:43:04;;;;;;;5.95;4.80;;;12.70;20.60;;;;;;5099067;28;20301;-84
2022/01/27 09:45:38;;;;;;;7.38;4.72;;;13.60;17.90;;;;;;5099310;28;20201;-85
2022/01/27 09:48:12;;;;;;;6.75;4.40;;;14.60;16.10;;;;;;5098429;28;20284;-84
2022/01/27 09:50:50;;;;;;;8.05;4.55;;;14.50;16.00;;;;;;5085264;28;20592;-84
2022/01/27 09:53:17;;;;;;;7.78;3.80;;;15.10;15.60;;;;;;5100969;28;20220;-84
2022/01/27 09:56:16;;;;;;;11.95;7.05;;;15.30;14.40;;;;;;5101767;28;20279;-84
2022/01/27 09:59:22;;;;;;;11.40;4.47;;;15.80;14.30;;;;;;5100278;28;20288;-84
2022/01/27 10:01:58;;;;;;;12.85;4.38;;;15.70;14.80;;;;;;5098573;28;20303;-84
2022/01/27 10:04:43;;;;;;;11.02;4.70;;;15.80;14.70;;;;;;5101204;28;20218;-82
2022/01/27 10:07:57;;;;;;;10.88;5.95;;;15.90;14.80;;;;;;5097473;28;20691;-82
2022/01/27 10:11:02;;;;;;;9.98;4.28;;;16.20;13.80;;;;;;5100222;28;20216;-82
2022/01/27 10:16:54;;;;;;;5.32;3.78;;;16.80;13.50;;;;;;5100396;28;20220;-84
2022/01/27 10:19:25;;;;;;;9.68;3.97;;;15.80;13.00;;;;;;5101362;28;20191;-84
2022/01/27 10:31:39;;;;;;;10.13;3.33;;;15.30;13.50;;;;;;5100383;28;20615;-84
2022/01/27 10:41:17;;;;;;;5.78;2.75;;;15.10;14.20;;;;;;5058326;28;20237;-84
2022/01/27 10:43:45;;;;;;;9.90;3.30;;;14.40;14.30;;;;;;5057461;28;20221;-85
2022/01/27 10:46:20;;;;;;;6.75;2.88;;;14.60;13.90;;;;;;5087610;28;20269;-83
2022/01/27 11:06:59;;;;;;;23.50;18.40;;;14.60;14.60;;;;;;5016540;28;20578;-85
2022/01/27 11:09:33;;;;;;;17.35;9.73;;;15.20;13.90;;;;;;5005231;28;20204;-84
2022/01/27 11:12:06;;;;;;;11.05;6.07;;;15.50;12.60;;;;;;5010320;28;20282;-84
2022/01/27 11:14:34;;;;;;;6.95;3.05;;;15.20;13.70;;;;;;5003176;28;20196;-84
2022/01/27 11:17:02;;;;;;;7.03;4.22;;;15.00;12.50;;;;;;5001391;28;20314;-84
2022/01/27 11:20:28;;;;;;;7.47;4.47;;;15.20;13.40;;;;;;5001337;28;20529;-84
2022/01/27 11:23:45;;;;;;;8.55;4.95;;;14.40;13.50;;;;;;5008720;28;20204;-84
2022/01/27 11:26:23;;;;;;;6.18;3.00;;;13.70;15.20;;;;;;4977530;28;20204;-86
2022/01/27 11:39:55;;;;;;;5.22;2.42;;;11.60;18.30;;;;;;4999508;28;20279;-86
2022/01/27 11:49:54;;;;;;;3.00;2.70;;;10.10;18.20;;;;;;5394890;23;20238;-85
2022/01/27 11:55:51;;;;;;;6.38;2.90;;;9.80;19.10;;;;;;5016749;28;20598;-85
2022/01/27 11:58:21;;;;;;;4.05;2.75;;;9.80;18.80;;;;;;5030787;28;20237;-87
2022/01/27 12:01:11;;;;;;;5.25;2.70;;;9.70;20.20;;;;;;5035845;28;20241;-86
2022/01/27 12:03:39;;;;;;;7.78;2.58;;;9.90;19.80;;;;;;5037252;28;20230;-86
2022/01/27 12:06:17;;;;;;;5.20;2.60;;;10.00;18.70;;;;;;5048204;28;20657;-85
2022/01/27 12:08:45;;;;;;;8.38;2.72;;;9.90;19.90;;;;;;5035860;28;20246;-88
2022/01/27 12:11:42;;;;;;;7.68;2.75;;;9.80;20.90;;;;;;5026224;28;20208;-86
2022/01/27 12:14:10;;;;;;;4.15;2.80;;;9.50;24.70;;;;;;5038756;28;20218;-84
2022/01/27 12:16:56;;;;;;;5.63;2.78;;;9.60;22.00;;;;;;5035222;28;20202;-85
2022/01/27 12:19:23;;;;;;;5.22;2.40;;;9.50;22.30;;;;;;5040511;28;20194;-84
2022/01/27 12:22:06;;;;;;;5.43;2.90;;;9.90;22.80;;;;;;5037572;28;20567;-85
2022/01/27 12:28:23;;;;;;;5.25;2.47;;;10.40;18.70;;;;;;5042951;28;20584;-84
2022/01/27 12:30:58;;;;;;;5.72;2.90;;;10.10;18.80;;;;;;5042462;28;20551;-85
2022/01/27 12:33:25;;;;;;;16.02;9.82;;;9.90;21.00;;;;;;5023687;28;20321;-84
2022/01/27 12:35:56;;;;;;;8.23;4.85;;;9.70;22.90;;;;;;5029142;28;20297;-85
2022/01/27 12:38:28;;;;;;;5.90;3.72;;;9.40;20.70;;;;;;5040014;28;20616;-85
2022/01/27 12:41:00;;;;;;;11.68;7.65;;;9.40;20.90;;;;;;5041552;28;20198;-84
2022/01/27 12:43:29;;;;;;;9.45;5.45;;;9.50;22.90;;;;;;5042360;28;20234;-85
2022/01/27 12:46:08;;;;;;;7.55;3.33;;;9.50;24.70;;;;;;5044289;28;20195;-84
2022/01/27 12:48:38;;;;;;;6.18;4.03;;;9.70;24.90;;;;;;5045613;23;20222;-85
2022/01/27 12:51:08;;;;;;;7.15;4.78;;;9.80;24.80;;;;;;5038163;28;20561;-87
2022/01/27 12:54:21;;;;;;;16.98;13.15;;;9.80;23.80;;;;;;5037792;28;20280;-87
2022/01/27 12:56:53;;;;;;;6.07;3.60;;;9.80;23.00;;;;;;5037659;28;20262;-85
2022/01/27 12:59:31;;;;;;;6.57;4.80;;;9.30;23.30;;;;;;5027089;28;20198;-88
2022/01/27 13:02:17;;;;;;;18.40;11.13;;;9.10;24.40;;;;;;5027762;28;20276;-86
2022/01/27 13:04:54;;;;;;;7.40;4.55;;;9.00;24.30;;;;;;5026026;28;20205;-86
2022/01/27 13:07:23;;;;;;;9.65;4.35;;;8.70;24.10;;;;;;5041864;28;20325;-85
2022/01/27 13:09:59;;;;;;;13.43;6.95;;;8.70;24.10;;;;;;5048041;28;20202;-87
2022/01/27 13:12:30;;;;;;;13.20;6.45;;;8.90;27.40;;;;;;5045377;28;20246;-87
2022/01/27 13:15:06;;;;;;;9.25;6.38;;;8.90;28.10;;;;;;5043617;28;20209;-85
2022/01/27 13:17:40;;;;;;;13.07;7.03;;;9.10;28.90;;;;;;5040816;28;20240;-85
2022/01/27 13:20:23;;;;;;;9.85;6.32;;;9.60;28.80;;;;;;5036735;28;20249;-85
2022/01/27 13:22:55;;;;;;;12.65;6.47;;;9.20;29.30;;;;;;5036917;28;20238;-85
2022/01/27 13:25:23;;;;;;;10.20;7.32;;;8.90;29.80;;;;;;5038261;28;20205;-85
2022/01/27 13:28:11;;;;;;;12.73;7.28;;;8.90;30.20;;;;;;5023150;28;20245;-84
2022/01/27 13:30:38;;;;;;;13.43;7.63;;;8.70;31.70;;;;;;5010366;28;20205;-85
2022/01/27 13:33:09;;;;;;;8.60;6.75;;;8.70;30.70;;;;;;5025126;28;20222;-85
2022/01/27 13:35:37;;;;;;;12.43;7.30;;;8.30;31.70;;;;;;5034579;28;20190;-84
2022/01/27 13:38:21;;;;;;;13.20;8.70;;;8.30;32.80;;;;;;5032481;28;20313;-84
2022/01/27 13:43:41;;;;;;;13.68;8.13;;;8.00;33.40;;;;;;5032115;28;20225;-85
2022/01/27 13:46:09;;;;;;;15.85;8.85;;;8.30;31.50;;;;;;5033451;28;20650;-85
2022/01/27 13:48:44;;;;;;;23.15;16.65;;;8.20;32.00;;;;;;5035263;28;20298;-84
2022/01/27 13:51:20;;;;;;;18.85;12.40;;;8.60;33.10;;;;;;5041638;28;20197;-86
2022/01/27 13:54:01;;;;;;;15.00;9.98;;;8.30;30.80;;;;;;5033131;28;20296;-85
2022/01/27 13:56:39;;;;;;;15.68;10.70;;;7.90;32.30;;;;;;5027706;28;20213;-86
2022/01/27 13:59:11;;;;;;;14.35;10.30;;;8.20;33.60;;;;;;5029204;28;20237;-87
2022/01/27 14:01:40;;;;;;;16.85;8.85;;;8.20;33.50;;;;;;5031354;28;20236;-85
2022/01/27 14:04:14;;;;;;;16.95;8.82;;;7.80;32.10;;;;;;5027129;28;20203;-85
2022/01/27 14:06:55;;;;;;;12.68;9.30;;;7.80;32.40;;;;;;5022260;28;20305;-85
2022/01/27 14:09:25;;;;;;;13.65;9.38;;;8.00;35.10;;;;;;5034409;28;20314;-85
2022/01/27 14:12:00;;;;;;;16.98;9.43;;;8.70;32.10;;;;;;5026006;28;20234;-85
2022/01/27 14:14:49;;;;;;;15.00;9.00;;;8.60;31.60;;;;;;5026522;28;20210;-85
2022/01/27 14:17:25;;;;;;;14.18;8.57;;;8.20;30.80;;;;;;5031866;28;20717;-88
2022/01/27 14:19:53;;;;;;;12.95;8.93;;;7.60;32.10;;;;;;5034095;28;20695;-85
2022/01/27 14:22:21;;;;;;;19.33;9.30;;;7.50;33.80;;;;;;5031614;28;20265;-85
2022/01/27 14:24:58;;;;;;;14.38;9.20;;;7.70;33.80;;;;;;5022683;28;20202;-85
2022/01/27 14:27:38;;;;;;;13.70;9.27;;;7.70;35.00;;;;;;5033791;28;20233;-84
2022/01/27 14:30:13;;;;;;;14.55;9.32;;;7.80;35.20;;;;;;5033516;28;20204;-86
2022/01/27 14:32:41;;;;;;;15.73;9.77;;;7.40;33.60;;;;;;5029439;28;20214;-84
2022/01/27 14:35:09;;;;;;;13.45;9.75;;;7.00;34.90;;;;;;5023827;28;20288;-85